パリ/シャルル・ド・ゴール の空港の天気 - METARとTAF

シャルル・ド・ゴール国際空港(パリ) ( LFPG / CDG ) - フランス Paris
飛行場実況気象(Metar)
観測時間06/03 13:30 CEST (06/03 11:30 UTC)
風向・風速北北東 4m/s
視程10km以上
天気現象
なし
気温24℃
湿度44%
気圧1005hPa
METARLFPG 031130Z AUTO 03007KT 330V080 CAVOK 24/11 Q1005 TEMPO FEW030CB
過去の天気等 Google飛行場航空写真 Wunderground天気予報

過去48時間のMETAR

飛行場予報(TAF)
発表時間: 6/03 13:00 CEST (6/03 11:00 UTC)
予報対象時間: 3日14時 CEST ~ 4日20時 CEST
風向・風速北東 4m/s
視程10km以上
少しの雲 雲底高度 1220m
3日14時 CEST ~ 4日20時 CEST に一時的に
少しの塔状積雲 雲底高度 1220m
3日19時 CEST ~ 4日1時 CEST に 確率 40% で一時的に
風向・風速不定 8m/s 瞬間風速 15m/s
視程4000m
天気現象雷雨
全天の4割程度の積乱雲 雲底高度 1220m
4日1時 CEST ~ 4日9時 CEST に 確率 30% で一時的に
視程4000m
天気現象弱い雷雨
全天の8割程度の雲 雲底高度 370m
全天の4割程度の積乱雲 雲底高度 610m
4日11時 CEST ~ 4日14時 CEST に徐々に
風向・風速北西 6m/s
4日12時 CEST ~ 4日20時 CEST に 確率 40% で一時的に
風向・風速北西 8m/s 瞬間風速 13m/s
視程4000m
天気現象しゅう雨
TAF LFPG 031100Z 0312/0418 04008KT 9999 FEW040 TX27/0314Z TN13/0404Z
TEMPO 0312/0418 FEW040TCU
PROB40 TEMPO 0317/0323 VRB15G30KT 4000 TSRA SCT040CB
PROB30 TEMPO 0323/0407 4000 -TSRA BKN012 SCT020CB
BECMG 0409/0412 32012KT
PROB40 TEMPO 0410/0418 32015G25KT 4000 SHRA